Time;durP1;ratioP1;P1;durP2;ratioP2;P2;SDS_P1;SDS_P2;PMS_P1;PMS_P2;Temp;Humidity;BMP_temperature;BMP_pressure;BME280_temperature;BME280_humidity;BME280_pressure;Samples;Min_cycle;Max_cycle;Signal;HPM_P1;HPM_P2
2021/10/29 00:01:10;;;;;;;22.07;20.17;;;4.50;99.90;;;;;;5085768;28;20202;-78
2021/10/29 00:03:37;;;;;;;21.33;19.53;;;4.50;99.90;;;;;;5082221;28;20724;-77
2021/10/29 00:06:04;;;;;;;22.50;20.43;;;4.40;99.90;;;;;;5082439;28;20216;-77
2021/10/29 00:08:31;;;;;;;21.47;19.47;;;4.40;99.90;;;;;;5088396;28;20275;-78
2021/10/29 00:10:58;;;;;;;20.73;18.93;;;4.40;99.90;;;;;;5081661;28;20191;-77
2021/10/29 00:13:25;;;;;;;20.53;18.83;;;4.40;99.90;;;;;;5072993;28;20687;-77
2021/10/29 00:15:52;;;;;;;21.47;19.67;;;4.30;99.90;;;;;;5086665;28;20190;-78
2021/10/29 00:18:21;;;;;;;21.27;19.57;;;4.40;99.90;;;;;;5081050;28;20244;-78
2021/10/29 00:20:48;;;;;;;22.20;20.37;;;4.40;99.90;;;;;;5087713;28;20226;-78
2021/10/29 00:23:15;;;;;;;21.57;19.80;;;4.50;99.90;;;;;;5081434;28;20195;-77
2021/10/29 00:25:42;;;;;;;21.43;19.70;;;4.40;99.90;;;;;;5082420;28;20226;-77
2021/10/29 00:28:08;;;;;;;21.43;19.73;;;4.50;99.90;;;;;;5079391;28;20263;-78
2021/10/29 00:30:35;;;;;;;21.47;19.67;;;4.50;99.90;;;;;;5079590;28;20198;-77
2021/10/29 00:33:03;;;;;;;20.87;19.17;;;4.50;99.90;;;;;;5076189;28;20728;-77
2021/10/29 00:35:31;;;;;;;21.30;19.50;;;4.50;99.90;;;;;;5082100;28;20195;-77
2021/10/29 00:37:58;;;;;;;20.33;18.70;;;4.40;99.90;;;;;;5087320;28;20241;-77
2021/10/29 00:40:25;;;;;;;21.13;19.40;;;4.40;99.90;;;;;;5077844;28;20210;-77
2021/10/29 00:42:52;;;;;;;21.60;19.90;;;4.30;99.90;;;;;;5084707;28;20246;-77
2021/10/29 00:45:19;;;;;;;21.77;19.47;;;4.30;99.90;;;;;;5077524;28;20687;-77
2021/10/29 00:47:45;;;;;;;21.33;19.63;;;4.20;99.90;;;;;;5081937;28;20198;-78
2021/10/29 00:50:13;;;;;;;20.20;18.50;;;4.10;99.90;;;;;;5084421;28;20261;-77
2021/10/29 00:52:41;;;;;;;19.77;18.13;;;4.10;99.90;;;;;;5081567;28;20766;-76
2021/10/29 00:55:09;;;;;;;20.20;18.50;;;4.10;99.90;;;;;;5085911;28;20335;-77
2021/10/29 00:57:36;;;;;;;19.43;17.93;;;4.10;99.90;;;;;;5080907;28;20452;-77
2021/10/29 01:00:04;;;;;;;19.00;17.57;;;4.00;99.90;;;;;;5082604;28;20471;-78
2021/10/29 01:02:31;;;;;;;19.00;17.60;;;4.00;99.90;;;;;;5080404;28;20714;-77
2021/10/29 01:04:58;;;;;;;18.33;16.93;;;4.00;99.90;;;;;;5084347;28;20851;-77
2021/10/29 01:07:25;;;;;;;19.37;17.77;;;4.00;99.90;;;;;;5086257;28;20205;-77
2021/10/29 01:09:53;;;;;;;19.63;17.90;;;3.90;99.90;;;;;;5078913;28;20238;-77
2021/10/29 01:12:20;;;;;;;19.30;17.90;;;3.90;99.90;;;;;;5078846;28;20632;-77
2021/10/29 01:14:53;;;;;;;19.87;18.27;;;3.90;99.90;;;;;;5083528;28;20190;-77
2021/10/29 01:17:21;;;;;;;18.80;17.40;;;3.80;99.90;;;;;;5079479;28;20213;-78
2021/10/29 01:19:50;;;;;;;19.10;17.70;;;3.80;99.90;;;;;;5081051;28;20579;-76
2021/10/29 01:22:19;;;;;;;19.83;18.23;;;3.80;99.90;;;;;;5080374;28;20264;-76
2021/10/29 01:24:46;;;;;;;19.83;18.27;;;3.80;99.90;;;;;;5090549;28;20288;-78
2021/10/29 01:27:15;;;;;;;19.40;18.07;;;3.80;99.90;;;;;;5090736;28;20244;-77
2021/10/29 01:29:43;;;;;;;19.47;18.03;;;3.70;99.90;;;;;;5090549;28;20267;-77
2021/10/29 01:32:10;;;;;;;19.07;17.57;;;3.80;99.90;;;;;;5091129;28;20440;-77
2021/10/29 01:34:39;;;;;;;18.67;17.27;;;3.70;99.90;;;;;;5092847;28;20850;-77
2021/10/29 01:37:07;;;;;;;19.57;18.07;;;3.70;99.90;;;;;;5085621;28;20474;-76
2021/10/29 01:39:37;;;;;;;19.60;18.10;;;3.70;99.90;;;;;;5076006;28;20218;-77
2021/10/29 01:42:05;;;;;;;19.87;18.37;;;3.70;99.90;;;;;;5078444;28;20753;-77
2021/10/29 01:44:32;;;;;;;20.57;18.87;;;3.70;99.90;;;;;;5079253;28;20518;-77
2021/10/29 01:46:58;;;;;;;19.83;18.33;;;3.70;99.90;;;;;;5083331;28;20270;-77
2021/10/29 01:49:25;;;;;;;20.10;18.50;;;3.60;99.90;;;;;;5081415;28;20460;-78
2021/10/29 01:51:53;;;;;;;20.20;18.53;;;3.50;99.90;;;;;;5082768;28;20440;-77
2021/10/29 01:54:20;;;;;;;20.37;18.77;;;3.50;99.90;;;;;;5082464;28;20444;-77
2021/10/29 01:56:48;;;;;;;20.80;19.10;;;3.40;99.90;;;;;;5077059;28;20462;-77
2021/10/29 01:59:15;;;;;;;21.17;19.37;;;3.40;99.90;;;;;;5077986;28;20220;-77
2021/10/29 02:01:41;;;;;;;20.67;18.87;;;3.40;99.90;;;;;;5080900;28;20460;-77
2021/10/29 02:04:08;;;;;;;20.90;19.17;;;3.40;99.90;;;;;;5078652;28;20218;-77
2021/10/29 02:06:35;;;;;;;20.93;19.27;;;3.40;99.90;;;;;;5079769;28;20221;-78
2021/10/29 02:09:02;;;;;;;20.47;18.97;;;3.50;99.90;;;;;;5078087;28;20225;-78
2021/10/29 02:11:29;;;;;;;21.70;19.90;;;3.40;99.90;;;;;;5083457;28;20235;-77
2021/10/29 02:13:57;;;;;;;23.13;21.10;;;3.50;99.90;;;;;;5079154;28;20494;-76
2021/10/29 02:16:24;;;;;;;23.77;21.50;;;3.50;99.90;;;;;;5076406;28;20660;-78
2021/10/29 02:18:50;;;;;;;21.70;20.00;;;3.50;99.90;;;;;;5084860;28;20215;-77
2021/10/29 02:21:17;;;;;;;22.10;20.30;;;3.60;99.90;;;;;;5078589;28;20284;-77
2021/10/29 02:23:44;;;;;;;21.97;20.20;;;3.60;99.90;;;;;;5078942;28;21029;-77
2021/10/29 02:26:11;;;;;;;21.00;19.30;;;3.60;99.90;;;;;;5079603;28;20546;-78
2021/10/29 02:28:38;;;;;;;23.17;21.33;;;3.60;99.90;;;;;;5083542;28;20636;-77
2021/10/29 02:31:06;;;;;;;22.70;20.90;;;3.60;99.90;;;;;;5080109;28;20190;-77
2021/10/29 02:33:33;;;;;;;22.00;20.20;;;3.60;99.90;;;;;;5076266;28;20252;-76
2021/10/29 02:36:00;;;;;;;21.77;19.87;;;3.60;99.90;;;;;;5080573;28;20255;-77
2021/10/29 02:38:27;;;;;;;20.63;18.87;;;3.50;99.90;;;;;;5078451;28;20456;-76
2021/10/29 02:40:54;;;;;;;20.70;19.07;;;3.60;99.90;;;;;;5079887;28;20213;-77
2021/10/29 02:43:21;;;;;;;23.07;20.97;;;3.50;99.90;;;;;;5078436;28;20452;-76
2021/10/29 02:45:48;;;;;;;21.77;20.03;;;3.50;99.90;;;;;;5067301;28;20528;-76
2021/10/29 02:48:16;;;;;;;23.60;21.27;;;3.50;99.90;;;;;;5074430;28;20253;-77
2021/10/29 02:50:43;;;;;;;22.40;20.70;;;3.50;99.90;;;;;;5074598;28;20516;-76
2021/10/29 02:53:09;;;;;;;23.00;21.00;;;3.50;99.90;;;;;;5077427;28;20450;-76
2021/10/29 02:55:36;;;;;;;22.73;20.93;;;3.50;99.90;;;;;;5090667;28;20281;-76
2021/10/29 02:58:04;;;;;;;23.03;21.10;;;3.50;99.90;;;;;;5081657;28;20452;-76
2021/10/29 03:00:32;;;;;;;22.23;20.53;;;3.60;99.90;;;;;;5080897;28;20475;-76
2021/10/29 03:02:59;;;;;;;23.17;21.23;;;3.60;99.90;;;;;;5074828;28;20440;-75
2021/10/29 03:05:28;;;;;;;22.57;20.70;;;3.70;99.90;;;;;;5074099;28;20497;-76
2021/10/29 03:07:55;;;;;;;21.93;20.23;;;3.60;99.90;;;;;;5075928;28;20206;-76
2021/10/29 03:10:22;;;;;;;22.57;20.67;;;3.70;99.90;;;;;;5074598;28;20472;-76
2021/10/29 03:12:49;;;;;;;21.20;19.50;;;3.70;99.90;;;;;;5076667;28;20462;-76
2021/10/29 03:15:16;;;;;;;21.77;20.00;;;3.70;99.90;;;;;;5075050;28;20190;-75
2021/10/29 03:17:43;;;;;;;21.00;19.27;;;3.70;99.90;;;;;;5081696;28;20201;-76
2021/10/29 03:20:10;;;;;;;21.13;19.53;;;3.70;99.90;;;;;;5081656;28;20551;-75
2021/10/29 03:22:39;;;;;;;22.30;20.60;;;3.60;99.90;;;;;;5071112;28;20509;-75
2021/10/29 03:25:07;;;;;;;22.07;20.30;;;3.60;99.90;;;;;;5073274;28;20191;-75
2021/10/29 03:27:34;;;;;;;21.97;20.10;;;3.50;99.90;;;;;;5081119;28;20253;-76
2021/10/29 03:30:02;;;;;;;20.77;19.17;;;3.50;99.90;;;;;;5080979;28;20524;-76
2021/10/29 03:32:29;;;;;;;20.13;18.53;;;3.50;99.90;;;;;;5086359;28;20440;-75
2021/10/29 03:34:57;;;;;;;21.13;19.43;;;3.40;99.90;;;;;;5080467;28;20985;-75
2021/10/29 03:37:39;;;;;;;21.97;20.27;;;3.40;99.90;;;;;;5080073;28;20425;-76
2021/10/29 03:40:15;;;;;;;21.97;20.20;;;3.30;99.90;;;;;;5071018;28;20478;-75
2021/10/29 03:42:48;;;;;;;21.40;19.60;;;3.30;99.90;;;;;;5082749;28;20444;-76
2021/10/29 03:45:15;;;;;;;21.87;20.07;;;3.20;99.90;;;;;;5081490;28;20489;-76
2021/10/29 03:47:48;;;;;;;24.07;22.03;;;3.20;99.90;;;;;;5079819;28;20313;-76
2021/10/29 03:50:20;;;;;;;22.97;21.10;;;3.10;99.90;;;;;;5079692;28;20471;-75
2021/10/29 03:52:55;;;;;;;24.17;21.97;;;3.10;99.90;;;;;;5083938;28;20541;-76
2021/10/29 03:55:32;;;;;;;23.47;21.57;;;3.10;99.90;;;;;;5077946;28;20436;-76
2021/10/29 03:57:58;;;;;;;22.13;20.33;;;3.00;99.90;;;;;;5081080;28;20947;-77
2021/10/29 04:00:29;;;;;;;22.83;20.83;;;3.00;99.90;;;;;;5081938;28;20533;-78
2021/10/29 04:02:59;;;;;;;22.47;20.63;;;3.00;99.90;;;;;;5077489;28;20444;-78
2021/10/29 04:05:27;;;;;;;22.20;20.27;;;3.00;99.90;;;;;;5084054;28;20986;-78
2021/10/29 04:07:53;;;;;;;22.87;20.97;;;3.00;99.90;;;;;;5080434;28;20563;-78
2021/10/29 04:10:24;;;;;;;21.70;19.90;;;3.00;99.90;;;;;;5080463;28;20461;-78
2021/10/29 04:12:53;;;;;;;21.97;20.10;;;3.00;99.90;;;;;;5072770;28;20452;-78
2021/10/29 04:15:20;;;;;;;21.97;20.10;;;3.00;99.90;;;;;;5076693;28;20442;-78
2021/10/29 04:17:47;;;;;;;20.83;19.10;;;3.00;99.90;;;;;;5073245;22;20986;-74
2021/10/29 04:20:14;;;;;;;21.77;20.07;;;3.00;99.90;;;;;;5038039;28;20462;-74
2021/10/29 04:22:41;;;;;;;21.00;19.30;;;2.90;99.90;;;;;;5039525;28;20992;-74
2021/10/29 04:25:09;;;;;;;20.70;19.10;;;2.90;99.90;;;;;;5036496;28;20460;-74
2021/10/29 04:27:42;;;;;;;19.10;17.70;;;2.90;99.90;;;;;;5033474;28;20490;-74
2021/10/29 04:30:15;;;;;;;20.00;18.40;;;2.90;99.90;;;;;;5032443;28;20450;-74
2021/10/29 04:32:42;;;;;;;19.30;17.90;;;2.90;99.90;;;;;;5036690;28;20442;-74
2021/10/29 04:35:10;;;;;;;20.37;18.77;;;2.80;99.90;;;;;;5027319;28;20446;-73
2021/10/29 04:37:37;;;;;;;19.03;17.63;;;2.80;99.90;;;;;;5033293;28;20505;-74
2021/10/29 04:40:05;;;;;;;18.53;17.27;;;2.80;99.90;;;;;;5041738;28;20538;-74
2021/10/29 04:42:32;;;;;;;19.87;18.43;;;2.70;99.90;;;;;;5042072;28;20498;-74
2021/10/29 04:44:59;;;;;;;20.13;18.63;;;2.70;99.90;;;;;;5026736;28;20442;-74
2021/10/29 04:47:27;;;;;;;20.07;18.67;;;2.70;99.90;;;;;;5026341;28;20486;-74
2021/10/29 04:49:54;;;;;;;19.47;18.00;;;2.70;99.90;;;;;;5034381;28;20428;-73
2021/10/29 04:52:21;;;;;;;18.97;17.57;;;2.60;99.90;;;;;;5043949;28;20545;-74
2021/10/29 04:54:48;;;;;;;17.80;16.60;;;2.60;99.90;;;;;;5039756;28;20208;-74
2021/10/29 04:57:14;;;;;;;19.57;18.17;;;2.60;99.90;;;;;;5039064;28;20468;-74
2021/10/29 04:59:41;;;;;;;19.87;18.33;;;2.60;99.90;;;;;;5030017;28;21004;-74
2021/10/29 05:02:08;;;;;;;19.83;18.33;;;2.50;99.90;;;;;;5026991;28;20448;-73
2021/10/29 05:04:36;;;;;;;20.30;18.70;;;2.50;99.90;;;;;;5045644;28;20497;-74
2021/10/29 05:07:04;;;;;;;20.33;18.70;;;2.50;99.90;;;;;;5038785;28;20486;-74
2021/10/29 05:09:31;;;;;;;20.17;18.60;;;2.50;99.90;;;;;;5029971;28;20444;-74
2021/10/29 05:11:57;;;;;;;20.93;19.23;;;2.60;99.90;;;;;;5029954;28;20434;-74
2021/10/29 05:14:24;;;;;;;22.27;20.43;;;2.60;99.90;;;;;;5038755;28;20505;-74
2021/10/29 05:16:51;;;;;;;21.57;19.87;;;2.50;99.90;;;;;;5024127;28;20458;-74
2021/10/29 05:19:18;;;;;;;22.07;20.27;;;2.60;99.90;;;;;;5028850;28;20898;-74
2021/10/29 05:21:46;;;;;;;22.23;20.33;;;2.60;99.90;;;;;;5033787;28;20445;-75
2021/10/29 05:24:14;;;;;;;23.20;21.13;;;2.50;99.90;;;;;;5042445;28;20439;-74
2021/10/29 05:26:41;;;;;;;22.43;20.30;;;2.40;99.90;;;;;;5038191;28;20496;-73
2021/10/29 05:29:08;;;;;;;24.03;22.10;;;2.40;99.90;;;;;;5038889;28;20881;-73
2021/10/29 05:31:34;;;;;;;22.43;20.53;;;2.40;99.90;;;;;;5031958;28;20435;-74
2021/10/29 05:34:01;;;;;;;22.97;21.00;;;2.50;99.90;;;;;;5032740;28;20451;-73
2021/10/29 05:36:28;;;;;;;21.37;19.47;;;2.50;99.90;;;;;;5036207;28;20950;-74
2021/10/29 05:38:56;;;;;;;21.03;19.23;;;2.50;99.90;;;;;;5033165;28;20496;-74
2021/10/29 05:41:23;;;;;;;20.93;19.10;;;2.60;99.90;;;;;;5042687;28;20874;-74
2021/10/29 05:43:50;;;;;;;22.70;20.67;;;2.50;99.90;;;;;;5049015;28;20448;-74
2021/10/29 05:46:17;;;;;;;23.17;21.17;;;2.60;99.90;;;;;;5042443;28;20497;-74
2021/10/29 05:48:45;;;;;;;22.00;20.17;;;2.60;99.90;;;;;;5028822;28;20471;-74
2021/10/29 05:51:13;;;;;;;21.47;19.37;;;2.60;99.90;;;;;;5033942;28;20442;-74
2021/10/29 05:53:52;;;;;;;21.97;20.17;;;2.50;99.90;;;;;;5028933;28;20452;-74
2021/10/29 05:56:21;;;;;;;22.97;20.97;;;2.50;99.90;;;;;;5038255;28;20452;-74
2021/10/29 05:58:48;;;;;;;22.73;20.77;;;2.50;99.90;;;;;;5032598;28;20434;-74
2021/10/29 06:01:15;;;;;;;22.23;20.37;;;2.50;99.90;;;;;;5034535;28;20465;-73
2021/10/29 06:03:42;;;;;;;22.60;20.60;;;2.50;99.90;;;;;;5033470;28;20993;-74
2021/10/29 06:06:10;;;;;;;23.57;21.27;;;2.50;99.90;;;;;;5034959;28;20445;-73
2021/10/29 06:08:37;;;;;;;22.40;20.60;;;2.50;99.90;;;;;;5024788;28;20513;-74
2021/10/29 06:11:05;;;;;;;22.57;20.63;;;2.60;99.90;;;;;;5031057;28;20466;-74
2021/10/29 06:13:33;;;;;;;22.90;21.00;;;2.60;99.90;;;;;;5034514;28;20453;-74
2021/10/29 06:16:00;;;;;;;23.40;21.33;;;2.60;99.90;;;;;;5031448;28;20427;-74
2021/10/29 06:18:27;;;;;;;22.63;20.70;;;2.60;99.90;;;;;;5029847;28;20821;-73
2021/10/29 06:20:56;;;;;;;21.20;19.47;;;2.70;99.90;;;;;;5039778;28;20442;-74
2021/10/29 06:23:28;;;;;;;22.63;20.63;;;2.70;99.90;;;;;;5041588;28;20832;-73
2021/10/29 06:25:56;;;;;;;22.97;21.10;;;2.70;99.90;;;;;;5024341;28;20524;-74
2021/10/29 06:28:28;;;;;;;22.70;20.90;;;2.90;99.90;;;;;;5031489;28;20990;-74
2021/10/29 06:30:57;;;;;;;21.90;20.10;;;2.90;99.90;;;;;;5033326;28;20442;-74
2021/10/29 06:33:25;;;;;;;22.17;20.43;;;3.00;99.90;;;;;;5047388;28;20443;-74
2021/10/29 06:35:54;;;;;;;21.93;20.07;;;3.10;99.90;;;;;;5045507;28;20459;-74
2021/10/29 06:38:21;;;;;;;21.47;19.53;;;3.20;99.90;;;;;;5035886;28;20895;-74
2021/10/29 06:40:49;;;;;;;20.83;19.23;;;3.30;99.90;;;;;;5028181;28;20449;-74
2021/10/29 06:43:22;;;;;;;20.43;18.83;;;3.40;99.90;;;;;;5032681;28;20449;-74
2021/10/29 06:46:08;;;;;;;21.67;19.97;;;3.50;99.90;;;;;;5050191;28;20474;-74
2021/10/29 06:48:48;;;;;;;20.97;19.37;;;3.60;99.90;;;;;;5039588;28;20491;-73
2021/10/29 06:59:36;;;;;;;19.50;18.20;;;4.10;99.90;;;;;;5036284;28;20575;-73
2021/10/29 07:02:17;;;;;;;18.30;17.00;;;4.10;99.90;;;;;;5043691;28;20656;-75
2021/10/29 07:40:42;;;;;;;17.47;16.10;;;7.20;99.90;;;;;;5037444;28;20196;-75
2021/10/29 07:43:11;;;;;;;13.93;12.73;;;7.30;99.90;;;;;;5035833;28;20217;-75
2021/10/29 07:45:38;;;;;;;16.47;15.07;;;7.50;99.90;;;;;;5043870;28;20232;-74
2021/10/29 07:48:06;;;;;;;15.90;14.70;;;7.60;99.90;;;;;;5036175;28;20317;-74
2021/10/29 07:50:33;;;;;;;13.43;12.30;;;8.00;99.90;;;;;;5041029;28;20293;-75
2021/10/29 07:53:01;;;;;;;10.27;9.30;;;8.40;99.90;;;;;;5032485;28;20235;-75
2021/10/29 07:55:31;;;;;;;11.90;10.87;;;8.80;99.90;;;;;;5036156;28;20203;-75
2021/10/29 07:58:02;;;;;;;17.17;15.87;;;9.30;99.90;;;;;;5040655;28;20644;-74
2021/10/29 08:00:30;;;;;;;16.00;14.87;;;9.60;99.90;;;;;;5033495;28;20416;-75
2021/10/29 08:02:57;;;;;;;16.40;15.27;;;9.70;99.90;;;;;;5033672;28;20302;-75
2021/10/29 08:05:24;;;;;;;15.20;14.20;;;10.00;99.90;;;;;;5030950;28;20300;-75
2021/10/29 08:07:51;;;;;;;9.93;8.93;;;10.50;99.90;;;;;;5027320;28;20629;-75
2021/10/29 08:10:20;;;;;;;13.63;12.53;;;10.80;99.90;;;;;;5030574;28;20196;-76
2021/10/29 08:12:47;;;;;;;11.60;10.60;;;10.80;99.90;;;;;;5048274;28;20196;-75
2021/10/29 08:15:14;;;;;;;12.07;11.07;;;10.80;99.90;;;;;;5030307;28;20196;-75
2021/10/29 08:17:41;;;;;;;10.67;9.67;;;10.60;99.90;;;;;;5036834;28;20294;-75
2021/10/29 08:20:12;;;;;;;8.63;7.83;;;10.50;99.90;;;;;;5033763;28;20278;-75
2021/10/29 08:22:40;;;;;;;8.63;7.73;;;10.50;99.90;;;;;;5031633;28;20257;-75
2021/10/29 08:25:09;;;;;;;10.80;9.90;;;10.30;99.90;;;;;;5030586;28;20206;-75
2021/10/29 08:27:38;;;;;;;9.90;8.90;;;10.10;99.90;;;;;;5036138;28;20221;-75
2021/10/29 08:30:07;;;;;;;15.07;13.97;;;9.80;99.90;;;;;;5042867;28;20192;-75
2021/10/29 08:32:34;;;;;;;12.37;11.37;;;9.60;99.90;;;;;;5025571;28;20201;-75
2021/10/29 08:35:01;;;;;;;13.43;12.53;;;9.90;99.90;;;;;;5034030;28;20265;-75
2021/10/29 08:37:31;;;;;;;10.10;9.10;;;9.80;99.90;;;;;;5036026;28;20306;-74
2021/10/29 08:39:58;;;;;;;8.60;7.27;;;9.70;99.90;;;;;;5028119;28;20196;-75
2021/10/29 08:42:25;;;;;;;8.27;7.40;;;9.70;99.90;;;;;;5033541;28;20782;-75
2021/10/29 08:44:54;;;;;;;10.00;9.03;;;9.80;99.90;;;;;;5029625;28;20250;-75
2021/10/29 08:47:23;;;;;;;10.93;10.00;;;9.80;99.90;;;;;;5039812;28;20215;-74
2021/10/29 08:49:51;;;;;;;11.67;10.57;;;9.90;99.90;;;;;;5031654;28;20634;-75
2021/10/29 08:52:22;;;;;;;17.40;16.00;;;10.00;99.90;;;;;;5030123;28;20719;-75
2021/10/29 08:54:49;;;;;;;16.90;15.60;;;10.00;99.90;;;;;;5036535;28;20192;-75
2021/10/29 08:57:17;;;;;;;17.10;15.77;;;10.10;99.90;;;;;;5035663;28;20292;-75
2021/10/29 08:59:48;;;;;;;12.93;11.83;;;10.20;99.90;;;;;;5043006;28;20290;-75
2021/10/29 09:02:20;;;;;;;15.43;14.23;;;10.30;99.90;;;;;;5038250;28;20253;-75
2021/10/29 09:04:50;;;;;;;16.97;15.77;;;10.40;99.90;;;;;;5030332;28;20660;-75
2021/10/29 09:07:27;;;;;;;16.73;15.43;;;10.60;99.90;;;;;;5039268;28;20219;-75
2021/10/29 09:10:10;;;;;;;12.80;11.30;;;10.70;99.90;;;;;;5026340;28;20675;-75
2021/10/29 09:32:24;;;;;;;13.13;11.87;;;11.00;99.90;;;;;;5028114;28;20205;-75
2021/10/29 09:35:03;;;;;;;17.33;15.80;;;11.10;99.90;;;;;;5035283;28;20208;-74
2021/10/29 09:37:37;;;;;;;16.10;14.90;;;11.10;99.90;;;;;;5031657;28;20224;-75
2021/10/29 09:40:26;;;;;;;16.67;15.57;;;11.20;99.90;;;;;;5031980;28;20267;-75
2021/10/29 09:43:01;;;;;;;17.60;16.07;;;11.30;99.90;;;;;;5053501;28;20200;-75
2021/10/29 09:45:30;;;;;;;15.90;14.60;;;11.40;99.90;;;;;;5034593;28;20196;-74
2021/10/29 09:48:12;;;;;;;16.00;14.70;;;11.30;99.90;;;;;;5026231;28;20237;-75
2021/10/29 09:50:49;;;;;;;13.17;11.87;;;11.40;99.90;;;;;;5045468;28;20202;-76
2021/10/29 09:56:08;;;;;;;13.00;11.90;;;11.50;99.90;;;;;;5028746;28;20675;-76
2021/10/29 09:58:35;;;;;;;10.93;10.03;;;11.50;99.90;;;;;;5038267;28;20705;-75
2021/10/29 10:01:03;;;;;;;12.40;11.30;;;11.60;99.90;;;;;;5034254;28;20212;-75
2021/10/29 10:03:31;;;;;;;11.60;10.40;;;11.70;99.90;;;;;;5028535;28;20605;-75
2021/10/29 10:06:00;;;;;;;12.50;11.50;;;11.60;99.90;;;;;;5040622;28;20199;-75
2021/10/29 10:08:28;;;;;;;11.37;10.17;;;11.60;99.90;;;;;;5024666;28;20223;-75
2021/10/29 10:10:58;;;;;;;11.67;10.67;;;11.50;99.90;;;;;;5034720;28;20725;-77
2021/10/29 10:13:26;;;;;;;13.37;12.17;;;11.50;99.90;;;;;;5037280;28;20216;-75
2021/10/29 10:15:55;;;;;;;12.27;11.17;;;11.60;99.90;;;;;;5039506;28;20201;-77
2021/10/29 10:18:23;;;;;;;14.53;13.33;;;11.70;99.90;;;;;;5044838;22;20332;-79
2021/10/29 10:20:51;;;;;;;17.27;15.80;;;11.70;99.90;;;;;;5006990;28;20235;-79
2021/10/29 10:23:26;;;;;;;14.77;13.47;;;11.60;99.90;;;;;;5005263;28;20204;-80
2021/10/29 10:26:16;;;;;;;22.17;20.67;;;11.70;99.90;;;;;;5001739;28;20198;-80
2021/10/29 10:28:59;;;;;;;13.77;12.50;;;11.80;99.90;;;;;;4995367;28;20282;-80
2021/10/29 10:40:27;;;;;;;17.00;15.80;;;11.90;99.90;;;;;;5004792;28;20244;-79
2021/10/29 10:43:07;;;;;;;16.37;15.17;;;12.00;99.90;;;;;;5006737;28;20194;-80
2021/10/29 10:45:39;;;;;;;16.57;15.37;;;12.00;99.90;;;;;;4997016;28;20582;-80
2021/10/29 10:48:11;;;;;;;16.47;15.27;;;12.00;99.90;;;;;;5014263;28;20217;-79
2021/10/29 10:50:42;;;;;;;16.83;15.53;;;12.00;99.90;;;;;;4996422;28;20202;-79
2021/10/29 10:53:40;;;;;;;16.70;15.40;;;12.00;99.90;;;;;;5013068;28;20216;-78
2021/10/29 10:56:23;;;;;;;16.03;15.03;;;12.10;99.90;;;;;;5011789;28;20281;-79
2021/10/29 10:59:04;;;;;;;16.63;15.43;;;12.20;99.90;;;;;;4993102;28;20771;-79
2021/10/29 11:02:03;;;;;;;17.33;16.03;;;12.30;99.90;;;;;;5013698;28;20285;-79
2021/10/29 11:10:16;;;;;;;15.57;14.37;;;12.40;99.90;;;;;;5006659;28;20571;-78
2021/10/29 11:13:11;;;;;;;15.20;14.10;;;12.40;99.90;;;;;;4995617;28;20249;-79
2021/10/29 11:15:39;;;;;;;15.33;14.23;;;12.50;99.90;;;;;;5014906;28;20239;-79
2021/10/29 11:18:33;;;;;;;16.00;14.70;;;12.60;99.90;;;;;;4996940;28;20642;-79
2021/10/29 11:23:57;;;;;;;15.33;14.23;;;12.70;99.90;;;;;;5004555;28;20253;-79
2021/10/29 11:26:28;;;;;;;14.70;13.70;;;12.80;99.90;;;;;;5015732;28;20206;-79
2021/10/29 11:28:56;;;;;;;14.27;13.23;;;12.80;99.90;;;;;;5010953;28;20697;-79
2021/10/29 11:31:26;;;;;;;14.10;13.10;;;12.90;99.90;;;;;;5013342;28;20573;-78
2021/10/29 11:33:56;;;;;;;14.53;13.43;;;13.00;99.90;;;;;;4989514;28;20220;-79
2021/10/29 11:36:26;;;;;;;13.77;12.70;;;13.00;99.90;;;;;;4997171;28;20208;-79
2021/10/29 11:38:53;;;;;;;15.50;14.30;;;13.10;99.90;;;;;;5013929;28;20728;-79
2021/10/29 11:41:22;;;;;;;13.93;12.93;;;13.20;99.90;;;;;;5014529;28;20615;-79
2021/10/29 11:43:51;;;;;;;16.67;15.37;;;13.20;99.90;;;;;;5014419;28;20740;-79
2021/10/29 11:46:22;;;;;;;11.13;10.13;;;13.30;99.90;;;;;;4997257;28;20577;-79
2021/10/29 11:49:01;;;;;;;10.17;9.20;;;13.30;99.90;;;;;;4996395;28;20251;-78
2021/10/29 11:51:30;;;;;;;15.63;14.43;;;13.30;99.90;;;;;;5015753;28;20287;-79
2021/10/29 11:54:02;;;;;;;15.00;14.00;;;13.40;99.90;;;;;;5014643;28;20251;-79
2021/10/29 11:56:35;;;;;;;16.57;15.37;;;13.50;99.90;;;;;;5013674;28;20676;-79
2021/10/29 11:59:22;;;;;;;9.00;8.20;;;13.50;99.90;;;;;;5013986;28;20213;-79
2021/10/29 12:01:57;;;;;;;11.97;10.90;;;13.60;99.90;;;;;;4996517;28;20201;-79
2021/10/29 12:07:17;;;;;;;9.80;8.90;;;13.60;99.90;;;;;;5007649;28;20224;-78
2021/10/29 12:09:44;;;;;;;8.57;7.77;;;13.60;99.90;;;;;;4995906;28;20279;-79
2021/10/29 12:12:12;;;;;;;9.37;8.53;;;13.60;99.90;;;;;;5013920;28;20661;-79
2021/10/29 12:14:41;;;;;;;13.93;13.00;;;13.70;99.90;;;;;;5014002;28;20196;-79
2021/10/29 12:17:12;;;;;;;6.20;5.60;;;13.80;99.90;;;;;;4996144;28;20768;-80
2021/10/29 12:19:42;;;;;;;9.07;8.27;;;13.90;99.90;;;;;;4996082;28;20207;-79
2021/10/29 12:22:25;;;;;;;15.20;13.93;;;13.90;99.90;;;;;;5013323;28;20197;-79
2021/10/29 12:24:57;;;;;;;14.10;13.00;;;13.90;99.90;;;;;;5005583;28;20204;-78
2021/10/29 12:27:29;;;;;;;12.87;11.67;;;14.00;99.90;;;;;;4996029;28;20236;-79
2021/10/29 12:30:31;;;;;;;11.90;10.70;;;14.00;99.90;;;;;;5013233;28;20231;-79
2021/10/29 13:01:31;;;;;;;10.30;9.50;;;14.40;99.90;;;;;;4995550;28;20199;-78
2021/10/29 13:03:59;;;;;;;11.70;10.87;;;14.50;99.90;;;;;;4995196;28;20201;-79
2021/10/29 13:06:32;;;;;;;9.47;8.77;;;14.60;99.90;;;;;;5012777;28;20229;-79
2021/10/29 13:09:02;;;;;;;9.20;8.50;;;14.60;99.90;;;;;;4994757;28;20595;-79
2021/10/29 13:11:36;;;;;;;11.87;11.10;;;14.60;99.90;;;;;;5012761;28;20193;-79
2021/10/29 13:14:05;;;;;;;11.70;10.83;;;14.60;99.90;;;;;;4995213;28;20627;-79
2021/10/29 13:16:32;;;;;;;11.50;10.53;;;14.60;99.90;;;;;;4994957;28;20584;-78
2021/10/29 13:19:13;;;;;;;12.13;11.23;;;14.70;99.90;;;;;;4994677;28;20264;-79
2021/10/29 13:35:36;;;;;;;7.47;6.77;;;14.80;99.90;;;;;;4994639;28;20201;-79
2021/10/29 13:38:16;;;;;;;8.00;7.30;;;14.80;99.90;;;;;;5005444;28;20262;-79
2021/10/29 13:51:58;;;;;;;10.90;10.10;;;14.70;99.90;;;;;;4994337;28;20242;-78
2021/10/29 13:54:32;;;;;;;10.60;9.80;;;14.70;99.90;;;;;;5012365;28;20216;-79
2021/10/29 14:00:00;;;;;;;11.30;10.50;;;14.80;99.90;;;;;;4989726;28;20207;-79
2021/10/29 14:02:47;;;;;;;6.70;6.20;;;14.80;99.90;;;;;;4998975;28;20628;-78
2021/10/29 14:28:08;;;;;;;10.47;9.83;;;14.60;99.90;;;;;;5013968;28;20275;-79
2021/10/29 14:30:10;;;;;;;12.00;11.20;;;14.40;99.90;;;;;;4994283;28;20216;-79
2021/10/29 14:32:43;;;;;;;11.40;10.60;;;14.40;99.90;;;;;;5011651;28;20196;-78
2021/10/29 14:35:15;;;;;;;11.07;10.37;;;14.30;99.90;;;;;;5009789;28;20206;-78
2021/10/29 14:37:51;;;;;;;10.90;10.20;;;14.30;99.90;;;;;;5009627;28;20234;-78
2021/10/29 14:40:22;;;;;;;10.70;10.00;;;14.20;99.90;;;;;;4992409;28;20696;-78
2021/10/29 14:42:52;;;;;;;10.80;10.10;;;14.20;99.90;;;;;;5012096;28;20220;-78
2021/10/29 14:45:24;;;;;;;10.70;10.00;;;14.20;99.90;;;;;;4992948;28;20299;-78
2021/10/29 14:48:04;;;;;;;10.50;9.80;;;14.20;99.90;;;;;;4991518;28;20232;-78
2021/10/29 15:04:38;;;;;;;10.00;9.40;;;14.10;99.90;;;;;;4997961;28;20347;-78
2021/10/29 15:15:45;;;;;;;10.00;9.40;;;14.10;99.90;;;;;;4997192;28;20212;-78
2021/10/29 15:18:26;;;;;;;9.73;9.13;;;14.00;99.90;;;;;;4992572;28;20228;-78
2021/10/29 15:29:14;;;;;;;8.93;8.43;;;13.70;99.90;;;;;;4996048;28;20213;-79
2021/10/29 15:43:03;;;;;;;9.60;9.00;;;13.10;99.90;;;;;;5015128;28;20193;-77
2021/10/29 15:45:36;;;;;;;9.97;9.37;;;13.00;99.90;;;;;;5015402;28;20291;-78
2021/10/29 15:48:08;;;;;;;10.67;9.97;;;12.80;99.90;;;;;;5014589;28;20212;-78
2021/10/29 15:50:37;;;;;;;10.23;9.63;;;12.60;99.90;;;;;;5014611;28;20252;-78
2021/10/29 15:53:06;;;;;;;10.97;10.27;;;12.50;99.90;;;;;;4996632;28;20208;-79
2021/10/29 15:55:39;;;;;;;10.83;10.13;;;12.30;99.90;;;;;;4997046;28;20207;-79
2021/10/29 15:58:18;;;;;;;11.03;10.23;;;12.20;99.90;;;;;;5013646;28;20302;-80
2021/10/29 16:01:00;;;;;;;9.53;8.93;;;12.00;99.90;;;;;;5014776;28;20207;-80
2021/10/29 16:03:31;;;;;;;5.73;5.23;;;11.90;99.90;;;;;;5002648;28;20229;-79
2021/10/29 16:17:05;;;;;;;11.10;10.30;;;11.20;99.90;;;;;;5015054;28;20627;-77
2021/10/29 16:19:34;;;;;;;11.27;10.37;;;11.10;99.90;;;;;;5018572;28;20194;-79
2021/10/29 16:22:05;;;;;;;12.47;11.47;;;10.90;99.90;;;;;;5015186;28;20640;-77
2021/10/29 16:24:32;;;;;;;9.00;8.03;;;10.80;99.90;;;;;;4996210;28;20693;-77
2021/10/29 16:26:59;;;;;;;9.00;7.97;;;10.60;99.90;;;;;;4996668;28;20600;-78
2021/10/29 16:29:26;;;;;;;9.63;8.20;;;10.50;99.90;;;;;;5015704;28;20693;-77